createdAt,value
2019-01-26T00:01:55.587Z,5.70
2019-01-26T00:04:25.491Z,5.70
2019-01-26T00:06:55.186Z,5.60
2019-01-26T00:09:24.888Z,5.70
2019-01-26T00:11:54.859Z,5.70
2019-01-26T00:14:24.519Z,5.70
2019-01-26T00:16:54.421Z,5.70
2019-01-26T00:19:24.183Z,5.70
2019-01-26T00:21:53.957Z,5.80
2019-01-26T00:24:23.668Z,5.80
2019-01-26T00:26:53.504Z,5.70
2019-01-26T00:29:23.325Z,5.80
2019-01-26T00:31:53.121Z,5.80
2019-01-26T00:34:22.937Z,5.80
2019-01-26T00:36:52.517Z,5.80
2019-01-26T00:39:22.126Z,5.80
2019-01-26T00:41:51.835Z,5.90
2019-01-26T00:44:21.632Z,5.90
2019-01-26T00:46:51.286Z,5.90
2019-01-26T00:49:21.191Z,6.00
2019-01-26T00:51:50.897Z,5.90
2019-01-26T00:54:20.571Z,6.00
2019-01-26T00:56:50.365Z,6.00
2019-01-26T00:59:20.159Z,6.00
2019-01-26T01:01:49.897Z,6.00
2019-01-26T01:04:19.587Z,6.00
2019-01-26T01:06:49.327Z,6.00
2019-01-26T01:09:19.105Z,6.10
2019-01-26T01:11:48.677Z,6.10
2019-01-26T01:14:18.224Z,6.00
2019-01-26T01:16:47.953Z,6.00
2019-01-26T01:19:17.546Z,6.00
2019-01-26T01:21:47.360Z,6.00
2019-01-26T01:24:17.072Z,6.00
2019-01-26T01:26:46.741Z,6.10
2019-01-26T01:29:16.411Z,6.00
2019-01-26T01:31:46.210Z,6.10
2019-01-26T01:34:15.959Z,6.10
2019-01-26T01:36:45.640Z,6.10
2019-01-26T01:39:15.236Z,6.10
2019-01-26T01:41:44.811Z,6.10
2019-01-26T01:44:14.613Z,6.10
2019-01-26T01:46:44.444Z,6.10
2019-01-26T01:49:13.985Z,6.10
2019-01-26T01:51:43.491Z,6.10
2019-01-26T01:54:13.170Z,6.10
2019-01-26T01:56:42.999Z,6.20
2019-01-26T01:59:12.681Z,6.20
2019-01-26T02:01:42.341Z,6.20
2019-01-26T02:04:12.030Z,6.20
2019-01-26T02:06:41.768Z,6.30
2019-01-26T02:09:11.462Z,6.30
2019-01-26T02:11:41.350Z,6.30
2019-01-26T02:14:10.956Z,6.30
2019-01-26T02:16:40.552Z,6.30
2019-01-26T02:19:10.178Z,6.40
2019-01-26T02:21:39.789Z,6.30
2019-01-26T02:24:09.429Z,6.30
2019-01-26T02:26:39.301Z,6.30
2019-01-26T02:29:09.084Z,6.30
2019-01-26T02:31:38.756Z,6.40
2019-01-26T02:34:08.478Z,6.30
2019-01-26T02:36:38.300Z,6.40
2019-01-26T02:39:08.734Z,6.40
2019-01-26T02:41:38.400Z,6.50
2019-01-26T02:44:08.050Z,6.60
2019-01-26T02:46:37.643Z,6.50
2019-01-26T02:49:07.308Z,6.50
2019-01-26T02:51:37.122Z,6.50
2019-01-26T02:54:06.932Z,6.50
2019-01-26T02:56:36.617Z,6.60
2019-01-26T02:59:06.216Z,6.60
2019-01-26T03:01:36.091Z,6.60
2019-01-26T03:04:06.069Z,6.50
2019-01-26T03:06:35.997Z,6.60
2019-01-26T03:09:09.044Z,6.60
2019-01-26T03:11:38.612Z,6.70
2019-01-26T03:14:08.205Z,6.60
2019-01-26T03:16:37.943Z,6.60
2019-01-26T03:19:07.581Z,6.70
2019-01-26T03:21:37.307Z,6.70
2019-01-26T03:24:07.081Z,6.60
2019-01-26T03:26:36.730Z,6.70
2019-01-26T03:29:06.441Z,6.70
2019-01-26T03:31:35.968Z,6.70
2019-01-26T03:34:05.657Z,6.80
2019-01-26T03:36:35.498Z,6.80
2019-01-26T03:39:08.621Z,6.70
2019-01-26T03:41:38.314Z,6.70
2019-01-26T03:44:08.082Z,6.60
2019-01-26T03:46:37.837Z,6.70
2019-01-26T03:49:07.693Z,6.70
2019-01-26T03:51:37.481Z,6.60
2019-01-26T03:54:07.037Z,6.70
2019-01-26T03:56:36.698Z,6.60
2019-01-26T03:59:06.280Z,6.60
2019-01-26T04:01:35.810Z,6.60
2019-01-26T04:04:05.438Z,6.60
2019-01-26T04:06:34.963Z,6.60
2019-01-26T04:09:08.490Z,6.60
2019-01-26T04:11:38.166Z,6.60
2019-01-26T04:14:07.849Z,6.60
2019-01-26T04:16:37.594Z,6.60
2019-01-26T04:19:07.387Z,6.60
2019-01-26T04:21:37.103Z,6.70
2019-01-26T04:24:06.933Z,6.70
2019-01-26T04:26:36.710Z,6.70
2019-01-26T04:29:06.441Z,6.70
2019-01-26T04:31:37.068Z,6.70
2019-01-26T04:34:06.724Z,6.70
2019-01-26T04:36:36.526Z,6.70
2019-01-26T04:39:08.843Z,6.70
2019-01-26T04:41:38.721Z,6.70
2019-01-26T04:44:08.497Z,6.70
2019-01-26T04:46:38.329Z,6.70
2019-01-26T04:49:08.067Z,6.70
2019-01-26T04:51:37.897Z,6.70
2019-01-26T04:54:07.756Z,6.70
2019-01-26T04:56:37.494Z,6.70
2019-01-26T04:59:07.274Z,6.70
2019-01-26T05:01:37.181Z,6.70
2019-01-26T05:04:06.972Z,6.60
2019-01-26T05:06:36.831Z,6.60
2019-01-26T05:09:08.693Z,6.60
2019-01-26T05:11:38.447Z,6.60
2019-01-26T05:14:08.235Z,6.60
2019-01-26T05:16:38.042Z,6.60
2019-01-26T05:19:07.802Z,6.50
2019-01-26T05:21:37.528Z,6.50
2019-01-26T05:24:07.124Z,6.60
2019-01-26T05:26:36.789Z,6.60
2019-01-26T05:29:06.352Z,6.60
2019-01-26T05:31:36.033Z,6.60
2019-01-26T05:34:05.965Z,6.60
2019-01-26T05:36:35.823Z,6.60
2019-01-26T05:39:08.579Z,6.60
2019-01-26T05:41:38.438Z,6.50
2019-01-26T05:44:08.163Z,6.50
2019-01-26T05:46:37.888Z,6.50
2019-01-26T05:49:07.659Z,6.60
2019-01-26T05:51:37.484Z,6.50
2019-01-26T05:54:07.254Z,6.50
2019-01-26T05:56:36.902Z,6.50
2019-01-26T05:59:06.650Z,6.60
2019-01-26T06:01:36.398Z,6.50
2019-01-26T06:04:06.040Z,6.40
2019-01-26T06:06:36.142Z,6.40
2019-01-26T06:09:08.789Z,6.40
2019-01-26T06:11:38.536Z,6.40
2019-01-26T06:14:09.458Z,6.40
2019-01-26T06:16:39.272Z,6.40
2019-01-26T06:19:09.370Z,6.40
2019-01-26T06:21:39.178Z,6.30
2019-01-26T06:24:09.037Z,6.30
2019-01-26T06:26:38.911Z,6.30
2019-01-26T06:29:08.696Z,6.30
2019-01-26T06:31:38.520Z,6.30
2019-01-26T06:34:08.204Z,6.30
2019-01-26T06:36:38.019Z,6.30
2019-01-26T06:39:08.470Z,6.30
2019-01-26T06:41:38.095Z,6.30
2019-01-26T06:44:07.763Z,6.30
2019-01-26T06:46:37.409Z,6.40
2019-01-26T06:49:07.196Z,6.40
2019-01-26T06:51:38.487Z,6.40
2019-01-26T06:54:08.041Z,6.40
2019-01-26T06:56:37.775Z,6.40
2019-01-26T06:59:07.415Z,6.40
2019-01-26T07:01:37.017Z,6.40
2019-01-26T07:04:08.331Z,6.40
2019-01-26T07:06:43.238Z,6.40
2019-01-26T07:09:12.935Z,6.40
2019-01-26T07:11:42.635Z,6.40
2019-01-26T07:14:13.348Z,6.40
2019-01-26T07:16:43.129Z,6.40
2019-01-26T07:19:12.661Z,6.40
2019-01-26T07:21:42.335Z,6.40
2019-01-26T07:24:12.037Z,6.40
2019-01-26T07:26:41.749Z,6.50
2019-01-26T07:29:11.396Z,6.50
2019-01-26T07:31:41.161Z,6.50
2019-01-26T07:34:11.017Z,6.60
2019-01-26T07:36:40.875Z,6.50
2019-01-26T07:39:10.922Z,6.60
2019-01-26T07:41:40.603Z,6.60
2019-01-26T07:44:10.239Z,6.60
2019-01-26T07:46:40.031Z,6.60
2019-01-26T07:49:09.929Z,6.60
2019-01-26T07:51:39.777Z,6.60
2019-01-26T07:54:09.529Z,6.70
2019-01-26T07:56:39.228Z,6.60
2019-01-26T07:59:08.912Z,6.70
2019-01-26T08:01:38.568Z,6.70
2019-01-26T08:04:08.135Z,6.70
2019-01-26T08:06:37.808Z,6.70
2019-01-26T08:09:09.340Z,6.70
2019-01-26T08:11:38.857Z,6.80
2019-01-26T08:14:10.016Z,6.80
2019-01-26T08:16:39.641Z,6.80
2019-01-26T08:19:09.153Z,6.90
2019-01-26T08:21:38.729Z,6.90
2019-01-26T08:24:08.299Z,6.90
2019-01-26T08:26:37.886Z,6.90
2019-01-26T08:29:07.614Z,6.90
2019-01-26T08:31:37.126Z,7.00
2019-01-26T08:34:07.234Z,7.00
2019-01-26T08:36:36.857Z,7.00
2019-01-26T08:39:08.129Z,7.00
2019-01-26T08:41:37.689Z,7.00
2019-01-26T08:44:07.432Z,7.10
2019-01-26T08:46:37.008Z,7.10
2019-01-26T08:49:06.466Z,7.10
2019-01-26T08:51:36.036Z,7.20
2019-01-26T08:54:05.453Z,7.20
2019-01-26T08:56:34.982Z,7.20
2019-01-26T08:59:04.647Z,7.20
2019-01-26T09:05:17.917Z,7.30
2019-01-26T09:07:47.664Z,7.20
2019-01-26T09:10:17.495Z,7.20
2019-01-26T09:12:47.322Z,7.20
2019-01-26T09:15:16.990Z,7.20
2019-01-26T09:17:46.532Z,7.20
2019-01-26T09:20:17.235Z,7.20
2019-01-26T09:22:47.291Z,7.20
2019-01-26T09:25:20.903Z,7.20
2019-01-26T09:27:50.853Z,7.20
2019-01-26T09:30:20.579Z,7.20
2019-01-26T09:32:50.226Z,7.20
2019-01-26T09:35:19.827Z,7.20
2019-01-26T09:37:51.793Z,7.20
2019-01-26T09:40:21.239Z,7.20
2019-01-26T09:42:50.758Z,7.20
2019-01-26T09:45:20.266Z,7.20
2019-01-26T09:47:49.670Z,7.20
2019-01-26T09:50:20.954Z,7.20
2019-01-26T09:52:50.680Z,7.20
2019-01-26T09:55:20.139Z,7.20
2019-01-26T09:57:49.703Z,7.20
2019-01-26T10:00:19.408Z,7.10
2019-01-26T10:02:48.949Z,7.10
2019-01-26T10:05:18.455Z,7.10
2019-01-26T10:07:48.384Z,7.10
2019-01-26T10:10:19.603Z,7.10
2019-01-26T10:12:49.120Z,7.10
2019-01-26T10:15:21.945Z,7.10
2019-01-26T10:17:51.603Z,7.10
2019-01-26T10:20:23.581Z,7.00
2019-01-26T10:22:53.148Z,7.00
2019-01-26T10:25:22.557Z,7.00
2019-01-26T10:27:52.027Z,7.00
2019-01-26T10:30:32.821Z,7.00
2019-01-26T10:33:03.575Z,7.00
2019-01-26T10:36:01.127Z,7.00
2019-01-26T10:38:32.679Z,7.00
2019-01-26T10:41:27.415Z,7.00
2019-01-26T10:43:56.993Z,7.00
2019-01-26T10:46:26.549Z,7.00
2019-01-26T10:49:00.617Z,7.00
2019-01-26T10:51:30.620Z,7.10
2019-01-26T10:54:02.981Z,7.10
2019-01-26T10:56:32.501Z,7.10
2019-01-26T10:59:05.454Z,7.10
2019-01-26T11:01:34.931Z,7.10
2019-01-26T11:04:04.503Z,7.10
2019-01-26T11:06:40.283Z,7.10
2019-01-26T11:09:12.011Z,7.10
2019-01-26T11:11:41.641Z,7.10
2019-01-26T11:14:11.164Z,7.10
2019-01-26T11:16:40.661Z,7.10
2019-01-26T11:19:10.193Z,7.10
2019-01-26T11:21:40.876Z,7.10
2019-01-26T11:24:10.619Z,7.10
2019-01-26T11:26:40.083Z,7.10
2019-01-26T11:29:09.835Z,7.00
2019-01-26T11:31:39.846Z,7.00
2019-01-26T11:34:09.304Z,7.00
2019-01-26T11:36:38.762Z,7.00
2019-01-26T11:39:12.292Z,7.10
2019-01-26T11:41:41.744Z,7.10
2019-01-26T11:44:11.264Z,7.10
2019-01-26T11:47:06.330Z,7.10
2019-01-26T11:49:36.048Z,7.10
2019-01-26T11:52:07.826Z,7.10
2019-01-26T11:54:59.240Z,7.10
2019-01-26T11:57:37.716Z,7.10
2019-01-26T12:00:51.437Z,7.10
2019-01-26T12:03:43.814Z,7.20
2019-01-26T12:06:20.901Z,7.10
2019-01-26T12:08:50.588Z,7.10
2019-01-26T12:11:23.960Z,7.10
2019-01-26T12:13:53.701Z,7.10
2019-01-26T12:16:27.052Z,7.10
2019-01-26T12:18:54.678Z,7.10
2019-01-26T12:21:24.378Z,7.10
2019-01-26T12:23:59.604Z,7.10
2019-01-26T12:26:29.237Z,7.10
2019-01-26T12:28:58.773Z,7.20
2019-01-26T12:31:37.156Z,7.10
2019-01-26T12:34:06.737Z,7.20
2019-01-26T12:36:37.795Z,7.10
2019-01-26T12:39:10.596Z,7.20
2019-01-26T12:41:40.291Z,7.20
2019-01-26T12:44:09.866Z,7.30
2019-01-26T12:46:39.375Z,7.30
2019-01-26T12:49:08.763Z,7.40
2019-01-26T12:51:39.464Z,7.40
2019-01-26T12:54:08.926Z,7.40
2019-01-26T12:56:38.455Z,7.40
2019-01-26T12:59:08.087Z,7.40
2019-01-26T13:01:42.020Z,7.50
2019-01-26T13:04:11.667Z,7.60
2019-01-26T13:06:41.471Z,7.50
2019-01-26T13:09:11.511Z,7.60
2019-01-26T13:11:42.910Z,7.50
2019-01-26T13:14:12.391Z,7.50
2019-01-26T13:16:43.533Z,7.50
2019-01-26T13:19:13.051Z,7.50
2019-01-26T13:21:42.595Z,7.50
2019-01-26T13:24:13.309Z,7.40
2019-01-26T13:26:42.871Z,7.40
2019-01-26T13:29:12.388Z,7.40
2019-01-26T13:31:41.884Z,7.40
2019-01-26T13:34:11.321Z,7.50
2019-01-26T13:36:42.057Z,7.50
2019-01-26T13:39:11.640Z,7.50
2019-01-26T13:41:41.024Z,7.60
2019-01-26T13:44:10.398Z,7.60
2019-01-26T13:46:43.873Z,7.60
2019-01-26T13:49:13.602Z,7.60
2019-01-26T13:51:43.158Z,7.60
2019-01-26T13:54:12.747Z,7.60
2019-01-26T13:56:42.322Z,7.60
2019-01-26T13:59:12.005Z,7.60
2019-01-26T14:01:41.476Z,7.60
2019-01-26T14:04:10.932Z,7.60
2019-01-26T14:06:40.421Z,7.50
2019-01-26T14:09:10.043Z,7.50
2019-01-26T14:11:39.722Z,7.40
2019-01-26T14:14:09.226Z,7.40
2019-01-26T14:16:38.752Z,7.40
2019-01-26T14:19:08.208Z,7.30
2019-01-26T14:21:37.732Z,7.30
2019-01-26T14:24:09.407Z,7.30
2019-01-26T14:26:38.758Z,7.20
2019-01-26T14:29:11.638Z,7.20
2019-01-26T14:31:41.184Z,7.20
2019-01-26T14:34:10.754Z,7.20
2019-01-26T14:36:40.140Z,7.20
2019-01-26T14:39:10.786Z,7.10
2019-01-26T14:41:43.970Z,7.10
2019-01-26T14:44:13.452Z,7.10
2019-01-26T14:46:42.819Z,7.10
2019-01-26T14:49:12.306Z,7.00
2019-01-26T14:51:41.689Z,7.00
2019-01-26T14:54:11.303Z,7.00
2019-01-26T14:56:40.814Z,7.00
2019-01-26T14:59:10.175Z,7.00
2019-01-26T15:01:39.689Z,7.00
2019-01-26T15:04:09.058Z,7.00
2019-01-26T15:06:40.788Z,7.00
2019-01-26T15:09:10.583Z,7.00
2019-01-26T15:11:40.001Z,7.00
2019-01-26T15:14:09.523Z,7.00
2019-01-26T15:16:39.034Z,7.00
2019-01-26T15:19:08.448Z,7.00
2019-01-26T15:21:37.832Z,7.00
2019-01-26T15:24:10.680Z,7.10
2019-01-26T15:26:40.019Z,7.10
2019-01-26T15:29:10.612Z,7.10
2019-01-26T15:31:40.121Z,7.00
2019-01-26T15:34:09.545Z,7.00
2019-01-26T15:36:38.947Z,7.00
2019-01-26T15:39:09.211Z,7.00
2019-01-26T15:41:38.615Z,6.90
2019-01-26T15:44:13.272Z,6.90
2019-01-26T15:46:42.743Z,6.90
2019-01-26T15:49:12.157Z,7.00
2019-01-26T15:51:41.695Z,6.90
2019-01-26T15:54:11.099Z,7.00
2019-01-26T15:56:42.433Z,7.00
2019-01-26T15:59:12.539Z,6.90
2019-01-26T16:01:47.995Z,6.90
2019-01-26T16:04:17.461Z,6.80
2019-01-26T16:06:46.947Z,6.80
2019-01-26T16:09:16.327Z,6.90
2019-01-26T16:11:45.710Z,6.80
2019-01-26T16:14:15.405Z,6.80
2019-01-26T16:16:49.214Z,6.80
2019-01-26T16:19:18.858Z,6.70
2019-01-26T16:21:48.674Z,6.70
2019-01-26T16:24:18.314Z,6.70
2019-01-26T16:26:47.938Z,6.70
2019-01-26T16:29:17.674Z,6.60
2019-01-26T16:31:47.494Z,6.60
2019-01-26T16:34:17.263Z,6.60
2019-01-26T16:36:47.023Z,6.60
2019-01-26T16:39:16.851Z,6.60
2019-01-26T16:41:46.730Z,6.60
2019-01-26T16:44:18.051Z,6.60
2019-01-26T16:46:47.813Z,6.60
2019-01-26T16:49:17.479Z,6.50
2019-01-26T16:51:53.173Z,6.50
2019-01-26T16:54:22.932Z,6.50
2019-01-26T16:56:52.780Z,6.50
2019-01-26T16:59:22.604Z,6.50
2019-01-26T17:01:52.213Z,6.50
2019-01-26T17:04:21.963Z,6.50
2019-01-26T17:06:54.773Z,6.50
2019-01-26T17:09:24.473Z,6.50
2019-01-26T17:11:56.447Z,6.50
2019-01-26T17:14:26.298Z,6.50
2019-01-26T17:16:59.075Z,6.50
2019-01-26T17:19:29.206Z,6.50
2019-01-26T17:22:01.864Z,6.60
2019-01-26T17:24:31.642Z,6.50
2019-01-26T17:27:01.403Z,6.50
2019-01-26T17:29:31.310Z,6.50
2019-01-26T17:32:01.034Z,6.40
2019-01-26T17:34:32.159Z,6.40
2019-01-26T17:37:01.960Z,6.40
2019-01-26T17:39:31.638Z,6.40
2019-01-26T17:42:01.466Z,6.40
2019-01-26T17:44:31.296Z,6.40
2019-01-26T17:47:01.019Z,6.30
2019-01-26T17:49:33.434Z,6.30
2019-01-26T17:52:03.432Z,6.30
2019-01-26T17:54:32.916Z,6.30
2019-01-26T17:57:02.622Z,6.30
2019-01-26T17:59:32.305Z,6.20
2019-01-26T18:02:02.977Z,6.20
2019-01-26T18:04:32.677Z,6.20
2019-01-26T18:07:02.404Z,6.20
2019-01-26T18:09:32.002Z,6.20
2019-01-26T18:12:01.606Z,6.20
2019-01-26T18:14:31.372Z,6.20
2019-01-26T18:17:01.019Z,6.10
2019-01-26T18:19:31.901Z,6.10
2019-01-26T18:22:01.554Z,6.10
2019-01-26T18:24:31.285Z,6.10
2019-01-26T18:27:01.073Z,6.10
2019-01-26T18:29:30.760Z,6.20
2019-01-26T18:32:00.431Z,6.10
2019-01-26T18:34:30.190Z,6.10
2019-01-26T18:37:02.918Z,6.20
2019-01-26T18:39:33.006Z,6.30
2019-01-26T18:42:02.590Z,6.30
2019-01-26T18:44:32.726Z,6.30
2019-01-26T18:54:55.936Z,6.40
2019-01-26T18:57:25.642Z,6.40
2019-01-26T19:00:00.441Z,6.50
2019-01-26T19:02:30.133Z,6.50
2019-01-26T19:05:04.194Z,6.50
2019-01-26T19:07:33.977Z,6.50
2019-01-26T19:10:04.053Z,6.60
2019-01-26T19:12:33.787Z,6.60
2019-01-26T19:15:09.305Z,6.60
2019-01-26T19:17:38.939Z,6.60
2019-01-26T19:20:09.831Z,6.60
2019-01-26T19:22:39.617Z,6.70
2019-01-26T19:25:11.886Z,6.70
2019-01-26T19:27:42.228Z,6.70
2019-01-26T19:30:14.112Z,6.70
2019-01-26T19:32:43.938Z,6.70
2019-01-26T19:35:15.301Z,6.70
2019-01-26T19:37:44.990Z,6.70
2019-01-26T19:40:19.338Z,6.70
2019-01-26T19:42:50.869Z,6.70
2019-01-26T19:45:21.325Z,6.80
2019-01-26T19:47:50.975Z,6.80
2019-01-26T19:50:27.862Z,6.80
2019-01-26T19:52:57.591Z,6.80
2019-01-26T19:55:27.071Z,6.80
2019-01-26T19:57:56.478Z,6.80
2019-01-26T20:00:25.951Z,6.80
2019-01-26T20:02:55.453Z,6.80
2019-01-26T20:05:24.995Z,6.80
2019-01-26T20:07:54.835Z,6.80
2019-01-26T20:10:24.793Z,6.90
2019-01-26T20:12:54.253Z,6.90
2019-01-26T20:15:23.766Z,6.90
2019-01-26T20:17:53.952Z,6.90
2019-01-26T20:20:26.946Z,6.90
2019-01-26T20:22:56.313Z,7.00
2019-01-26T20:25:25.950Z,7.00
2019-01-26T20:27:55.348Z,7.00
2019-01-26T20:30:32.094Z,7.00
2019-01-26T20:33:01.471Z,6.90
2019-01-26T20:35:31.489Z,6.90
2019-01-26T20:38:00.903Z,7.00
2019-01-26T20:40:30.390Z,7.00
2019-01-26T20:43:00.080Z,7.00
2019-01-26T20:45:31.378Z,7.00
2019-01-26T20:48:00.957Z,7.00
2019-01-26T20:50:33.638Z,7.00
2019-01-26T20:53:08.366Z,7.00
2019-01-26T20:55:39.909Z,7.00
2019-01-26T20:58:09.568Z,7.00
2019-01-26T21:00:39.061Z,7.00
2019-01-26T21:03:09.280Z,7.00
2019-01-26T21:05:38.829Z,7.00
2019-01-26T21:08:08.375Z,7.00
2019-01-26T21:10:37.908Z,7.00
2019-01-26T21:13:07.483Z,7.00
2019-01-26T21:15:37.001Z,7.00
2019-01-26T21:18:06.753Z,7.00
2019-01-26T21:20:36.510Z,7.00
2019-01-26T21:23:06.175Z,7.00
2019-01-26T21:25:35.625Z,7.00
2019-01-26T21:28:07.490Z,7.00
2019-01-26T21:30:36.994Z,7.00
2019-01-26T21:33:06.468Z,7.00
2019-01-26T21:35:36.001Z,7.00
2019-01-26T21:38:09.003Z,7.00
2019-01-26T21:40:38.979Z,6.90
2019-01-26T21:43:08.587Z,7.00
2019-01-26T21:45:38.295Z,7.00
2019-01-26T21:48:07.954Z,6.90
2019-01-26T21:50:37.494Z,6.90
2019-01-26T21:53:07.145Z,6.90
2019-01-26T21:55:36.791Z,6.90
2019-01-26T21:58:06.286Z,6.90
2019-01-26T22:00:35.903Z,6.90
2019-01-26T22:03:05.563Z,6.90
2019-01-26T22:05:35.263Z,6.90
2019-01-26T22:08:04.920Z,6.90
2019-01-26T22:10:34.460Z,7.00
2019-01-26T22:13:04.119Z,6.90
2019-01-26T22:15:34.063Z,6.90
2019-01-26T22:21:35.972Z,6.90
2019-01-26T22:24:05.585Z,6.90
2019-01-26T22:26:35.525Z,6.90
2019-01-26T22:29:05.383Z,6.90
2019-01-26T22:37:54.659Z,6.90
2019-01-26T22:40:33.378Z,6.90
2019-01-26T22:43:03.029Z,6.90
2019-01-26T22:45:32.679Z,6.90
2019-01-26T22:48:02.256Z,6.90
2019-01-26T22:50:31.996Z,6.90
2019-01-26T22:53:01.440Z,6.90
2019-01-26T22:55:31.478Z,6.90
2019-01-26T22:58:01.160Z,6.90
2019-01-26T23:01:01.590Z,6.80
2019-01-26T23:03:55.475Z,6.90
2019-01-26T23:07:18.501Z,6.80
2019-01-26T23:10:35.502Z,6.80
2019-01-26T23:13:27.701Z,6.80
2019-01-26T23:16:32.117Z,6.80
2019-01-26T23:19:25.890Z,6.90
2019-01-26T23:22:35.312Z,6.80
2019-01-26T23:25:20.782Z,6.80
2019-01-26T23:28:23.909Z,6.80
2019-01-26T23:31:11.654Z,6.80
2019-01-26T23:33:41.249Z,6.80
2019-01-26T23:36:10.951Z,6.80
2019-01-26T23:38:40.603Z,6.70
2019-01-26T23:41:10.198Z,6.70
2019-01-26T23:43:39.819Z,6.70
2019-01-26T23:46:09.532Z,6.70
2019-01-26T23:48:39.283Z,6.70
2019-01-26T23:51:09.554Z,6.70
2019-01-26T23:53:39.802Z,6.70
2019-01-26T23:56:09.386Z,6.60
2019-01-26T23:58:39.120Z,6.60
